Time;durP1;ratioP1;P1;durP2;ratioP2;P2;SDS_P1;SDS_P2;PMS_P1;PMS_P2;Temp;Humidity;BMP_temperature;BMP_pressure;BME280_temperature;BME280_humidity;BME280_pressure;Samples;Min_cycle;Max_cycle;Signal;HPM_P1;HPM_P2
2020/12/28 00:00:50;;;;;;;0.65;0.55;;;;;;;5.19;76.87;96784.45;1709399;84;21260;-65
2020/12/28 00:03:18;;;;;;;0.72;0.53;;;;;;;5.20;76.93;96786.55;1712100;82;21250;-65
2020/12/28 00:05:46;;;;;;;1.15;0.50;;;;;;;5.19;76.59;96776.72;1715073;84;21298;-65
2020/12/28 00:08:14;;;;;;;1.65;0.37;;;;;;;5.20;76.88;96779.64;1714726;84;21147;-65
2020/12/28 00:10:42;;;;;;;1.17;0.70;;;;;;;5.21;77.09;96763.73;1714803;84;21159;-65
2020/12/28 00:13:10;;;;;;;0.98;0.42;;;;;;;5.23;77.63;96769.06;1714856;84;21148;-64
2020/12/28 00:15:51;;;;;;;0.82;0.50;;;;;;;5.27;77.78;96769.59;1715181;84;21604;-64
2020/12/28 00:18:19;;;;;;;1.85;0.95;;;;;;;5.24;78.25;96771.98;1729401;82;21182;-63
2020/12/28 00:20:47;;;;;;;1.30;0.62;;;;;;;5.20;78.69;96766.77;1729460;83;21179;-64
2020/12/28 00:23:14;;;;;;;1.25;0.55;;;;;;;5.25;78.42;96772.30;1729696;82;21173;-64
2020/12/28 00:25:42;;;;;;;2.00;0.90;;;;;;;5.21;78.48;96747.78;1729796;83;21131;-63
2020/12/28 00:28:10;;;;;;;0.53;0.50;;;;;;;5.19;78.67;96738.12;1729397;82;21155;-64
2020/12/28 00:30:38;;;;;;;2.60;0.37;;;;;;;5.15;78.77;96737.24;1729708;83;21686;-64
2020/12/28 00:33:06;;;;;;;0.93;0.47;;;;;;;5.18;78.53;96727.48;1729576;83;21183;-64
2020/12/28 00:35:34;;;;;;;0.57;0.33;;;;;;;5.11;79.14;96731.56;1729369;82;21234;-65
2020/12/28 00:38:02;;;;;;;0.53;0.37;;;;;;;5.12;79.40;96729.81;1729482;83;21559;-63
2020/12/28 00:40:29;;;;;;;0.57;0.40;;;;;;;5.12;79.56;96720.33;1729468;82;21603;-64
2020/12/28 00:42:58;;;;;;;0.85;0.62;;;;;;;5.18;79.40;96727.48;1729626;82;21293;-65
2020/12/28 00:45:26;;;;;;;0.10;0.10;;;;;;;5.24;79.55;96733.38;1729560;83;21289;-65
2020/12/28 00:47:54;;;;;;;0.75;0.42;;;;;;;5.31;79.16;96731.05;1729305;82;21198;-63
2020/12/28 00:50:22;;;;;;;0.50;0.50;;;;;;;5.33;79.48;96727.05;1729718;83;21647;-65
2020/12/28 00:55:26;;;;;;;1.42;0.75;;;;;;;5.43;78.80;96690.02;1729543;83;21634;-65
2020/12/28 00:57:54;;;;;;;0.78;0.50;;;;;;;5.45;78.96;96682.13;1729349;82;21170;-63
2020/12/28 01:00:22;;;;;;;0.53;0.30;;;;;;;5.51;78.88;96695.75;1729173;82;21108;-65
2020/12/28 01:02:52;;;;;;;1.27;0.82;;;;;;;5.55;78.58;96704.34;1728789;82;21127;-65
2020/12/28 01:05:22;;;;;;;0.82;0.60;;;;;;;5.57;78.63;96697.73;1728047;83;21240;-64
2020/12/28 01:07:50;;;;;;;0.90;0.60;;;;;;;5.55;78.85;96699.66;1729428;82;21227;-64
2020/12/28 01:10:26;;;;;;;0.93;0.70;;;;;;;5.58;78.79;96689.06;1727882;82;21191;-64
2020/12/28 01:12:56;;;;;;;0.65;0.55;;;;;;;5.57;78.67;96687.44;1728935;82;21159;-64
2020/12/28 01:15:26;;;;;;;2.02;0.65;;;;;;;5.59;77.99;96695.38;1697046;83;21180;-64
2020/12/28 01:17:54;;;;;;;0.62;0.40;;;;;;;5.57;78.36;96679.72;1717496;83;21185;-66
2020/12/28 01:20:30;;;;;;;;;;;;;;;5.61;78.33;96674.61;1719020;83;21661;-64
2020/12/28 01:23:01;;;;;;;0.78;0.65;;;;;;;5.57;78.42;96660.40;1717620;83;20442;-65
2020/12/28 01:25:30;;;;;;;0.23;0.20;;;;;;;5.56;78.29;96663.45;1716890;83;21566;-62
2020/12/28 01:27:59;;;;;;;0.88;0.45;;;;;;;5.58;78.32;96651.25;1717656;83;21146;-66
2020/12/28 01:30:29;;;;;;;0.90;0.78;;;;;;;5.55;78.56;96650.27;1717585;83;21268;-66
2020/12/28 01:33:01;;;;;;;0.80;0.45;;;;;;;5.51;78.81;96650.69;1715893;83;21152;-64
2020/12/28 01:35:33;;;;;;;1.80;0.62;;;;;;;5.55;78.80;96651.55;1715464;82;21640;-65
2020/12/28 01:38:02;;;;;;;0.78;0.75;;;;;;;5.51;78.78;96651.50;1717734;83;21134;-65
2020/12/28 01:40:34;;;;;;;0.93;0.75;;;;;;;5.55;78.73;96634.00;1717802;83;21208;-63
2020/12/28 01:43:04;;;;;;;0.98;0.78;;;;;;;5.46;79.33;96633.56;1715532;82;21585;-63
2020/12/28 01:45:32;;;;;;;0.60;0.50;;;;;;;5.49;79.28;96625.54;1717693;83;21164;-64
2020/12/28 01:48:02;;;;;;;1.72;0.53;;;;;;;5.48;79.19;96628.62;1717513;83;21555;-63
2020/12/28 01:50:31;;;;;;;1.30;0.50;;;;;;;5.44;79.56;96627.76;1717643;83;21576;-66
2020/12/28 01:53:00;;;;;;;1.10;0.80;;;;;;;5.47;79.33;96628.75;1717482;83;21137;-66
2020/12/28 01:55:31;;;;;;;3.10;0.70;;;;;;;5.47;79.57;96618.45;1717610;83;21631;-65
2020/12/28 01:58:02;;;;;;;1.92;0.60;;;;;;;5.45;79.75;96621.63;1716937;82;21553;-65
2020/12/28 02:00:30;;;;;;;1.98;0.90;;;;;;;5.44;79.80;96628.57;1695405;83;21162;-64
2020/12/28 02:03:00;;;;;;;1.47;0.60;;;;;;;5.44;79.78;96620.03;1717517;83;21582;-64
2020/12/28 02:05:40;;;;;;;2.75;0.50;;;;;;;5.49;79.67;96612.20;1819891;79;22676;-65
2020/12/28 02:08:08;;;;;;;1.00;0.47;;;;;;;5.43;80.12;96610.69;1793376;80;21293;-66
2020/12/28 02:10:36;;;;;;;0.25;0.23;;;;;;;5.45;80.11;96616.01;1793490;80;21282;-66
2020/12/28 02:13:05;;;;;;;1.30;0.75;;;;;;;5.45;80.20;96608.28;1793299;80;21297;-66
2020/12/28 02:15:34;;;;;;;1.02;0.47;;;;;;;5.43;80.46;96592.19;1792919;80;21688;-65
2020/12/28 02:18:23;;;;;;;0.53;0.35;;;;;;;5.44;80.77;96592.53;1792045;80;21139;-65
2020/12/28 02:20:52;;;;;;;1.02;0.90;;;;;;;5.44;80.77;96583.52;1786917;80;21702;-65
2020/12/28 02:23:21;;;;;;;0.72;0.53;;;;;;;5.46;81.01;96576.45;1793298;80;21274;-64
2020/12/28 02:25:49;;;;;;;1.40;0.82;;;;;;;5.51;80.87;96577.30;1793507;80;21691;-64
2020/12/28 02:28:18;;;;;;;0.53;0.37;;;;;;;5.51;80.85;96570.39;1793213;80;21274;-64
2020/12/28 02:30:47;;;;;;;0.72;0.68;;;;;;;5.50;80.90;96561.05;1793127;80;21120;-64
2020/12/28 02:33:30;;;;;;;0.62;0.30;;;;;;;5.53;80.84;96554.30;1700958;83;21954;-63
2020/12/28 02:36:02;;;;;;;0.28;0.20;;;;;;;5.56;80.75;96560.95;1722136;83;21346;-64
2020/12/28 02:38:31;;;;;;;0.68;0.50;;;;;;;5.56;80.77;96542.42;1722290;82;21599;-62
2020/12/28 02:40:59;;;;;;;0.82;0.60;;;;;;;5.56;80.66;96551.44;1722217;83;21132;-65
2020/12/28 02:43:27;;;;;;;1.17;0.75;;;;;;;5.56;80.70;96546.79;1722298;83;21175;-65
2020/12/28 02:46:14;;;;;;;0.65;0.55;;;;;;;5.57;80.83;96544.52;1722460;83;21705;-64
2020/12/28 02:49:00;;;;;;;0.80;0.72;;;;;;;5.59;80.64;96536.19;1722292;83;21153;-63
2020/12/28 02:51:47;;;;;;;2.22;0.80;;;;;;;5.60;81.06;96535.24;1722521;83;21270;-63
2020/12/28 02:54:33;;;;;;;;;;;;;;;5.64;81.06;96543.01;1724718;83;21164;-62
2020/12/28 02:57:02;;;;;;;0.50;0.50;;;;;;;5.67;81.09;96542.70;1710044;83;20143;-63
2020/12/28 02:59:49;;;;;;;0.37;0.37;;;;;;;5.69;80.89;96542.06;1722325;83;21159;-63
2020/12/28 03:02:35;;;;;;;1.42;0.93;;;;;;;5.71;81.08;96538.41;1722452;83;21702;-64
2020/12/28 03:05:21;;;;;;;0.62;0.62;;;;;;;5.72;81.11;96545.63;1722455;83;21156;-63
2020/12/28 03:08:07;;;;;;;1.27;0.55;;;;;;;5.75;80.65;96542.78;1722660;83;21370;-64
2020/12/28 03:10:54;;;;;;;0.65;0.60;;;;;;;5.74;80.48;96544.55;1722350;83;21573;-64
2020/12/28 03:13:40;;;;;;;1.87;0.80;;;;;;;5.75;80.73;96542.78;1722339;83;21184;-64
2020/12/28 03:16:26;;;;;;;2.95;1.87;;;;;;;5.75;80.86;96547.94;1722269;82;21541;-66
2020/12/28 03:19:13;;;;;;;1.22;0.90;;;;;;;5.77;81.02;96540.86;1722280;83;21164;-68
2020/12/28 03:21:59;;;;;;;1.57;0.53;;;;;;;5.79;80.72;96526.55;1722492;83;21199;-64
2020/12/28 03:24:46;;;;;;;1.65;0.68;;;;;;;5.83;80.35;96507.27;1721840;83;21181;-66
2020/12/28 03:27:32;;;;;;;1.02;0.55;;;;;;;5.87;80.34;96522.31;1722467;83;21132;-65
2020/12/28 03:30:18;;;;;;;2.08;1.10;;;;;;;5.95;80.17;96529.30;1722398;83;21180;-64
2020/12/28 03:32:51;;;;;;;0.35;0.25;;;;;;;5.97;79.98;96506.28;1695948;81;21574;-64
2020/12/28 03:35:40;;;;;;;0.50;0.50;;;;;;;6.00;80.00;96525.78;1731657;82;21125;-65
2020/12/28 03:38:27;;;;;;;0.70;0.60;;;;;;;6.03;79.87;96514.69;1731468;82;21152;-64
2020/12/28 03:41:14;;;;;;;0.68;0.68;;;;;;;6.03;79.82;96518.55;1731845;81;21148;-65
2020/12/28 03:44:00;;;;;;;;;;;;;;;6.05;79.76;96492.65;1720358;83;21151;-64
2020/12/28 03:46:47;;;;;;;0.50;0.50;;;;;;;6.12;79.42;96506.07;1711667;82;20169;-64
2020/12/28 03:49:33;;;;;;;1.05;0.50;;;;;;;6.13;79.43;96485.79;1711580;82;21577;-65
2020/12/28 03:52:20;;;;;;;1.52;0.68;;;;;;;6.14;79.29;96480.97;1724011;82;21180;-65
2020/12/28 03:55:07;;;;;;;;;;;;;;;6.18;79.28;96473.27;1734570;82;21786;-65
2020/12/28 03:57:54;;;;;;;1.27;0.93;;;;;;;6.13;79.40;96480.63;1731890;81;20153;-64
2020/12/28 04:00:40;;;;;;;1.45;0.57;;;;;;;6.11;79.70;96483.02;1731600;82;21151;-65
2020/12/28 04:03:26;;;;;;;0.82;0.70;;;;;;;6.10;79.64;96480.13;1731779;82;21521;-64
2020/12/28 04:06:13;;;;;;;0.50;0.40;;;;;;;6.03;79.93;96494.08;1731562;81;21155;-64
2020/12/28 04:08:57;;;;;;;0.78;0.57;;;;;;;6.04;79.76;96489.73;1661952;85;21170;-65
2020/12/28 04:11:44;;;;;;;0.60;0.50;;;;;;;6.00;79.97;96498.25;1718176;82;21128;-65
2020/12/28 04:14:16;;;;;;;0.85;0.57;;;;;;;5.98;80.06;96507.91;1730383;82;21152;-63
2020/12/28 04:16:44;;;;;;;0.37;0.10;;;;;;;5.95;80.21;96504.32;1731539;82;21151;-63
2020/12/28 04:19:12;;;;;;;1.30;0.90;;;;;;;5.96;80.00;96502.08;1731770;82;21148;-63
2020/12/28 04:21:40;;;;;;;0.45;0.28;;;;;;;5.95;80.09;96508.19;1731613;82;21718;-64
2020/12/28 04:24:07;;;;;;;0.40;0.40;;;;;;;5.96;80.09;96512.39;1731382;82;21620;-63
2020/12/28 04:26:36;;;;;;;0.57;0.47;;;;;;;5.94;80.10;96509.17;1731660;82;21155;-63
2020/12/28 04:29:06;;;;;;;0.90;0.60;;;;;;;5.93;80.05;96513.98;1731549;82;21171;-63
2020/12/28 04:31:34;;;;;;;0.80;0.55;;;;;;;5.86;80.45;96512.96;1731690;82;21163;-64
2020/12/28 04:34:02;;;;;;;1.02;0.33;;;;;;;5.83;80.61;96521.44;1719191;82;21173;-63
2020/12/28 04:36:30;;;;;;;0.30;0.30;;;;;;;5.81;80.39;96540.89;1719228;83;21129;-63
2020/12/28 04:38:58;;;;;;;0.93;0.70;;;;;;;5.81;80.45;96533.64;1719113;83;21133;-64
2020/12/28 04:41:28;;;;;;;0.42;0.30;;;;;;;5.80;80.45;96531.54;1719111;83;21212;-66
2020/12/28 04:43:56;;;;;;;0.40;0.40;;;;;;;5.77;80.41;96531.84;1718701;83;21149;-66
2020/12/28 04:46:30;;;;;;;1.15;0.60;;;;;;;5.68;80.94;96536.61;1718790;82;21160;-65
2020/12/28 04:48:58;;;;;;;1.45;0.75;;;;;;;5.60;80.76;96532.16;1718778;83;21168;-64
2020/12/28 04:51:26;;;;;;;1.85;0.90;;;;;;;5.47;81.82;96525.77;1718949;82;21160;-65
2020/12/28 04:53:56;;;;;;;1.98;0.75;;;;;;;5.43;82.00;96521.86;1718784;82;21152;-65
2020/12/28 04:56:24;;;;;;;2.42;0.65;;;;;;;5.37;82.45;96522.45;1718703;83;21160;-65
2020/12/28 04:58:54;;;;;;;0.85;0.50;;;;;;;5.32;82.58;96514.36;1718807;82;21164;-64
2020/12/28 05:01:22;;;;;;;2.00;0.93;;;;;;;5.29;82.70;96513.36;1718842;83;21586;-65
2020/12/28 05:03:50;;;;;;;0.70;0.47;;;;;;;5.21;83.17;96512.30;1719018;83;21185;-64
2020/12/28 05:06:19;;;;;;;0.47;0.47;;;;;;;5.18;83.41;96500.20;1718786;83;21161;-65
2020/12/28 05:08:46;;;;;;;1.12;0.70;;;;;;;5.12;83.48;96500.80;1719166;82;21164;-62
2020/12/28 05:11:15;;;;;;;1.62;0.90;;;;;;;5.04;83.88;96500.70;1719118;83;21196;-65
2020/12/28 05:13:49;;;;;;;1.47;0.80;;;;;;;5.00;83.53;96498.89;1718802;83;21589;-63
2020/12/28 05:16:18;;;;;;;2.35;1.02;;;;;;;4.93;84.16;96475.17;1718979;82;21176;-63
2020/12/28 05:18:53;;;;;;;4.80;0.95;;;;;;;4.89;84.57;96486.23;1718825;82;21221;-65
2020/12/28 05:21:31;;;;;;;0.90;0.60;;;;;;;4.89;84.31;96484.12;1820177;79;22843;-64
2020/12/28 05:23:59;;;;;;;0.98;0.70;;;;;;;4.76;84.07;96491.70;1788314;80;21148;-63
2020/12/28 05:26:27;;;;;;;1.95;1.00;;;;;;;4.72;84.58;96487.79;1793764;80;21274;-63
2020/12/28 05:28:58;;;;;;;1.05;0.68;;;;;;;4.69;84.42;96485.52;1793600;80;21302;-64
2020/12/28 05:31:29;;;;;;;8.03;1.10;;;;;;;4.66;85.18;96494.80;1793478;80;21330;-64
2020/12/28 05:34:00;;;;;;;1.57;0.78;;;;;;;4.66;85.14;96497.38;1793234;80;21701;-63
2020/12/28 05:36:28;;;;;;;1.62;0.90;;;;;;;4.63;85.04;96508.42;1793350;80;21282;-65
2020/12/28 05:38:57;;;;;;;0.50;0.37;;;;;;;4.58;84.78;96501.59;1793455;80;21282;-63
2020/12/28 05:41:28;;;;;;;1.22;1.10;;;;;;;4.53;84.26;96502.48;1793465;80;21289;-63
2020/12/28 05:44:10;;;;;;;1.42;0.85;;;;;;;4.46;84.16;96502.25;1793350;80;21314;-67
2020/12/28 05:46:38;;;;;;;0.53;0.50;;;;;;;4.43;84.91;96493.53;1793247;80;21345;-65
2020/12/28 05:49:07;;;;;;;5.45;0.85;;;;;;;4.37;85.08;96481.70;1793310;80;21278;-65
2020/12/28 05:51:35;;;;;;;1.12;0.75;;;;;;;4.33;84.37;96480.36;1793173;80;21163;-65
2020/12/28 05:54:11;;;;;;;0.90;0.72;;;;;;;4.32;86.15;96480.83;1793145;80;21148;-65
2020/12/28 05:56:43;;;;;;;0.70;0.62;;;;;;;4.34;86.82;96480.23;1793161;80;21159;-67
2020/12/28 05:59:12;;;;;;;1.52;0.82;;;;;;;4.27;85.34;96481.27;1793295;80;21301;-64
2020/12/28 06:01:43;;;;;;;1.87;1.12;;;;;;;4.22;85.26;96493.72;1793132;80;21179;-65
2020/12/28 06:04:15;;;;;;;1.77;1.27;;;;;;;4.19;85.39;96500.43;1793137;80;21112;-64
2020/12/28 06:06:45;;;;;;;1.73;0.77;;;;;;;4.15;85.38;96502.13;1793306;80;21309;-65
2020/12/28 06:09:19;;;;;;;3.08;1.22;;;;;;;4.17;87.04;96501.50;1793125;80;21151;-65
2020/12/28 06:11:46;;;;;;;1.15;0.70;;;;;;;4.13;86.13;96500.97;1793190;80;21147;-65
2020/12/28 06:14:40;;;;;;;0.47;0.33;;;;;;;4.12;85.54;96515.25;1793323;80;21136;-64
2020/12/28 06:17:10;;;;;;;1.32;1.20;;;;;;;4.09;85.46;96521.45;1749943;82;21294;-66
2020/12/28 06:19:43;;;;;;;1.95;0.90;;;;;;;4.08;85.36;96535.27;1749596;81;21164;-66
2020/12/28 06:22:23;;;;;;;13.28;5.67;;;;;;;4.08;85.27;96524.19;1749585;82;21147;-65
2020/12/28 06:25:18;;;;;;;3.42;1.77;;;;;;;4.13;87.24;96530.98;1749725;81;21152;-65
2020/12/28 06:27:47;;;;;;;3.77;2.35;;;;;;;4.16;86.92;96527.66;1749614;81;21159;-65
2020/12/28 06:30:19;;;;;;;3.62;2.10;;;;;;;4.19;85.96;96537.69;1749471;82;21550;-65
2020/12/28 06:33:03;;;;;;;5.08;3.40;;;;;;;4.19;85.89;96565.13;1749075;82;21204;-67
2020/12/28 06:35:33;;;;;;;5.80;3.17;;;;;;;4.21;86.80;96552.47;1749096;82;21164;-66
2020/12/28 06:38:03;;;;;;;2.87;2.08;;;;;;;4.22;86.42;96550.25;1749079;81;21190;-66
2020/12/28 06:40:35;;;;;;;2.52;1.10;;;;;;;4.27;86.02;96552.41;1748981;82;21608;-66
2020/12/28 06:43:15;;;;;;;1.67;1.40;;;;;;;4.31;85.86;96561.47;1748526;82;21145;-66
2020/12/28 06:45:49;;;;;;;3.95;1.62;;;;;;;4.28;85.61;96545.02;1749484;81;21160;-65
2020/12/28 06:48:43;;;;;;;1.47;1.17;;;;;;;4.35;86.13;96547.86;1749206;81;21163;-65
2020/12/28 06:51:11;;;;;;;1.50;0.98;;;;;;;4.41;85.91;96545.54;1600140;89;21298;-65
2020/12/28 06:53:39;;;;;;;1.05;0.50;;;;;;;4.68;85.51;96555.06;1618061;88;21188;-64
2020/12/28 06:56:10;;;;;;;0.65;0.55;;;;;;;4.79;84.85;96551.84;1617935;88;21191;-66
2020/12/28 06:58:38;;;;;;;1.00;0.62;;;;;;;4.83;84.79;96548.52;1647599;86;21262;-68
2020/12/28 07:01:07;;;;;;;1.07;0.70;;;;;;;4.89;84.67;96544.58;1647892;86;21182;-67
2020/12/28 07:03:35;;;;;;;0.93;0.42;;;;;;;5.02;84.35;96533.49;1617938;87;21198;-66
2020/12/28 07:06:04;;;;;;;0.50;0.50;;;;;;;5.07;84.31;96535.95;1617905;88;21199;-65
2020/12/28 07:08:33;;;;;;;2.00;0.70;;;;;;;5.12;84.07;96542.77;1617914;88;21195;-66
2020/12/28 07:11:20;;;;;;;0.80;0.75;;;;;;;5.19;83.74;96548.96;1750170;82;21145;-68
2020/12/28 07:13:48;;;;;;;0.65;0.65;;;;;;;5.23;83.70;96540.48;1749954;82;21284;-65
2020/12/28 07:16:19;;;;;;;0.62;0.47;;;;;;;5.29;83.59;96533.95;1750113;82;21263;-65
2020/12/28 07:18:47;;;;;;;1.60;0.80;;;;;;;5.31;83.37;96533.31;1750047;82;21587;-65
2020/12/28 07:21:15;;;;;;;1.62;0.98;;;;;;;5.34;83.39;96534.31;1750141;82;21115;-65
2020/12/28 07:23:43;;;;;;;1.55;0.75;;;;;;;5.36;83.30;96538.38;1750433;82;21277;-65
2020/12/28 07:26:12;;;;;;;2.60;0.70;;;;;;;5.40;83.13;96546.62;1749992;82;21314;-64
2020/12/28 07:28:44;;;;;;;1.05;0.95;;;;;;;5.42;83.08;96544.22;1750360;82;21265;-65
2020/12/28 07:31:13;;;;;;;1.75;0.70;;;;;;;5.45;82.96;96550.36;1750489;81;21734;-65
2020/12/28 07:33:47;;;;;;;0.82;0.45;;;;;;;5.46;82.86;96549.41;1750366;81;21285;-64
2020/12/28 07:36:20;;;;;;;1.27;0.70;;;;;;;5.51;82.83;96559.28;1750335;82;21258;-65
2020/12/28 07:38:50;;;;;;;2.95;2.05;;;;;;;5.58;82.81;96553.88;1749957;81;21280;-65
2020/12/28 07:41:21;;;;;;;3.52;1.80;;;;;;;5.60;82.59;96550.19;1750151;82;21532;-65
2020/12/28 07:43:56;;;;;;;1.80;1.32;;;;;;;5.61;82.50;96551.00;1750283;82;21692;-70
2020/12/28 07:46:35;;;;;;;2.85;1.65;;;;;;;5.63;82.42;96553.78;1749925;82;21124;-64
2020/12/28 07:49:18;;;;;;;2.08;1.22;;;;;;;5.66;82.45;96550.91;1749947;81;21293;-63
2020/12/28 07:51:50;;;;;;;2.27;1.32;;;;;;;5.71;82.42;96544.84;1750075;82;21311;-65
2020/12/28 07:54:45;;;;;;;1.40;0.72;;;;;;;5.77;82.02;96547.30;1749945;82;21266;-64
2020/12/28 07:57:21;;;;;;;5.92;1.90;;;;;;;5.83;82.03;96540.76;1668753;85;21159;-66
2020/12/28 08:00:05;;;;;;;2.45;1.52;;;;;;;5.86;81.87;96533.57;1693246;85;21226;-66
2020/12/28 08:03:15;;;;;;;1.50;1.17;;;;;;;5.94;81.33;96531.06;1694011;84;21140;-66
2020/12/28 08:05:44;;;;;;;1.75;0.90;;;;;;;5.97;81.21;96529.95;1613689;89;21416;-66
2020/12/28 08:08:24;;;;;;;2.00;1.27;;;;;;;6.05;81.01;96523.57;1613862;89;21200;-65
2020/12/28 08:11:19;;;;;;;0.70;0.42;;;;;;;6.10;81.00;96520.08;1631146;87;21159;-64
2020/12/28 08:13:47;;;;;;;2.37;1.07;;;;;;;6.19;80.90;96523.02;1644153;86;21170;-63
2020/12/28 08:16:17;;;;;;;0.72;0.60;;;;;;;6.34;80.41;96520.73;1670565;86;21186;-64
2020/12/28 08:18:55;;;;;;;1.32;0.98;;;;;;;6.44;80.17;96514.50;1670505;86;21230;-65
2020/12/28 08:21:24;;;;;;;1.75;1.00;;;;;;;6.48;79.48;96508.56;1670493;86;21615;-65
2020/12/28 08:24:18;;;;;;;2.83;1.47;;;;;;;6.76;78.47;96528.55;1670583;86;21182;-66
2020/12/28 08:26:47;;;;;;;1.45;1.05;;;;;;;7.00;78.94;96527.37;1642007;87;21599;-66
2020/12/28 08:29:17;;;;;;;1.32;1.05;;;;;;;7.32;76.91;96529.23;1610292;88;21203;-66
2020/12/28 08:31:44;;;;;;;2.12;0.90;;;;;;;7.56;75.89;96530.11;1642048;86;21250;-66
2020/12/28 08:34:15;;;;;;;2.15;0.90;;;;;;;7.86;74.48;96527.91;1610453;89;21188;-66
2020/12/28 08:36:55;;;;;;;2.65;1.20;;;;;;;8.07;73.63;96525.15;1641880;87;21199;-66
2020/12/28 08:39:25;;;;;;;1.57;0.82;;;;;;;8.43;72.89;96532.11;1610182;89;21201;-67
2020/12/28 08:42:25;;;;;;;2.00;1.07;;;;;;;8.60;72.33;96527.69;1642139;87;21191;-66
2020/12/28 08:44:55;;;;;;;3.05;1.37;;;;;;;8.85;71.09;96526.67;1723183;83;21647;-67
2020/12/28 08:47:25;;;;;;;2.47;1.20;;;;;;;9.07;69.70;96535.48;1723359;83;21162;-66
2020/12/28 08:49:55;;;;;;;1.25;0.78;;;;;;;9.33;68.71;96540.41;1723128;82;21166;-65
2020/12/28 08:52:24;;;;;;;2.70;1.50;;;;;;;9.78;67.67;96538.36;1723218;82;21162;-65
2020/12/28 08:54:58;;;;;;;1.52;1.00;;;;;;;9.86;67.17;96522.27;1698678;83;21142;-65
2020/12/28 08:57:29;;;;;;;2.00;1.10;;;;;;;10.15;66.13;96520.79;1722985;82;21166;-65
2020/12/28 09:00:00;;;;;;;3.00;1.27;;;;;;;10.22;66.88;96520.41;1723088;83;21194;-65
2020/12/28 09:02:28;;;;;;;2.45;1.40;;;;;;;10.66;66.46;96516.08;1723501;82;21134;-65
2020/12/28 09:04:57;;;;;;;1.75;1.05;;;;;;;10.71;64.62;96504.67;1723087;83;21170;-65
2020/12/28 09:07:25;;;;;;;2.27;1.32;;;;;;;10.87;63.74;96503.20;1723308;83;21166;-66
2020/12/28 09:09:55;;;;;;;1.35;0.80;;;;;;;11.16;63.42;96508.06;1723435;83;21194;-66
2020/12/28 09:12:22;;;;;;;1.07;0.93;;;;;;;11.61;61.83;96497.86;1723228;83;21158;-66
2020/12/28 09:14:50;;;;;;;1.47;0.90;;;;;;;11.90;60.68;96491.30;1723258;83;21163;-65
2020/12/28 09:17:18;;;;;;;1.62;1.10;;;;;;;11.86;61.27;96485.66;1723262;83;21170;-65
2020/12/28 09:19:46;;;;;;;2.52;1.85;;;;;;;12.06;60.39;96498.81;1723218;82;21166;-65
2020/12/28 09:22:14;;;;;;;1.25;0.85;;;;;;;12.27;58.48;96492.30;1723282;82;21195;-65
2020/12/28 09:24:42;;;;;;;2.55;1.05;;;;;;;12.10;59.28;96493.55;1723118;83;21126;-65
2020/12/28 09:27:09;;;;;;;1.52;1.05;;;;;;;12.15;60.01;96494.30;1723299;83;21290;-64
2020/12/28 09:29:38;;;;;;;0.82;0.50;;;;;;;12.11;57.68;96492.56;1723132;83;21187;-65
2020/12/28 09:32:07;;;;;;;2.00;0.95;;;;;;;12.23;57.21;96474.15;1723217;83;21186;-65
2020/12/28 09:34:34;;;;;;;2.35;0.70;;;;;;;12.69;56.44;96473.15;1723222;83;21166;-65
2020/12/28 09:37:25;;;;;;;0.75;0.50;;;;;;;13.03;57.90;96463.22;1723201;82;21211;-65
2020/12/28 09:39:54;;;;;;;0.82;0.57;;;;;;;13.11;54.51;96455.23;1671841;86;21301;-65
2020/12/28 09:42:22;;;;;;;0.80;0.60;;;;;;;13.22;54.36;96455.20;1639238;87;21671;-66
2020/12/28 09:44:50;;;;;;;3.27;1.30;;;;;;;13.53;53.44;96453.38;1671993;86;21180;-66
2020/12/28 09:47:19;;;;;;;2.92;1.45;;;;;;;13.61;53.01;96448.78;1671995;86;21177;-66
2020/12/28 09:49:47;;;;;;;1.70;1.17;;;;;;;13.84;53.28;96448.91;1639243;87;21192;-66
2020/12/28 09:52:15;;;;;;;0.80;0.65;;;;;;;14.23;52.14;96451.03;1671971;86;21315;-66
2020/12/28 09:54:43;;;;;;;1.67;0.80;;;;;;;13.73;52.22;96451.08;1639242;87;21217;-66
2020/12/28 09:57:12;;;;;;;1.25;0.80;;;;;;;13.01;53.99;96443.55;1671988;86;21145;-65
2020/12/28 09:59:40;;;;;;;5.00;1.20;;;;;;;12.70;54.97;96440.91;1671871;86;21671;-66
2020/12/28 10:02:08;;;;;;;1.32;1.07;;;;;;;12.41;55.17;96438.55;1639329;87;21239;-65
2020/12/28 10:04:37;;;;;;;0.90;0.70;;;;;;;12.16;56.03;96442.56;1671873;86;21588;-66
2020/12/28 10:07:05;;;;;;;1.25;0.70;;;;;;;11.78;57.44;96447.27;1639142;87;21207;-63
2020/12/28 10:09:33;;;;;;;1.50;1.37;;;;;;;11.40;58.25;96442.75;1672126;86;21143;-65
2020/12/28 10:14:41;;;;;;;1.67;1.15;;;;;;;11.31;59.64;96430.88;1695131;84;21157;-65
2020/12/28 10:17:09;;;;;;;1.60;1.00;;;;;;;11.27;60.07;96429.63;1694939;85;21272;-65
2020/12/28 10:19:37;;;;;;;2.15;0.98;;;;;;;11.07;60.62;96429.91;1695235;84;21141;-65
2020/12/28 10:22:06;;;;;;;2.80;0.90;;;;;;;11.05;60.97;96424.10;1694966;84;21344;-65
2020/12/28 10:24:34;;;;;;;2.90;0.93;;;;;;;11.00;61.85;96422.05;1694935;84;21681;-65
2020/12/28 10:27:09;;;;;;;1.55;1.17;;;;;;;10.83;61.73;96418.03;1770028;78;21236;-65
2020/12/28 10:29:37;;;;;;;2.92;1.40;;;;;;;10.73;61.87;96409.25;1772242;79;21238;-65
2020/12/28 10:32:05;;;;;;;1.80;1.20;;;;;;;10.55;62.42;96392.41;1772420;80;21557;-65
2020/12/28 10:34:33;;;;;;;3.42;2.20;;;;;;;10.53;62.09;96404.78;1772371;80;21155;-66
2020/12/28 10:37:01;;;;;;;2.40;1.22;;;;;;;10.54;62.36;96395.53;1772354;80;21129;-65
2020/12/28 10:39:29;;;;;;;1.55;1.10;;;;;;;10.51;62.22;96384.19;1772440;79;21215;-65
2020/12/28 10:42:04;;;;;;;1.52;0.88;;;;;;;10.50;62.35;96388.28;1772130;80;21218;-65
2020/12/28 10:44:32;;;;;;;1.00;0.90;;;;;;;10.38;62.38;96383.55;1772646;80;21180;-65
2020/12/28 10:47:00;;;;;;;1.15;1.05;;;;;;;10.37;62.12;96388.41;1772454;80;21439;-66
2020/12/28 10:49:28;;;;;;;1.98;1.25;;;;;;;10.35;61.68;96394.78;1772297;80;21165;-65
2020/12/28 10:51:56;;;;;;;2.05;1.12;;;;;;;10.35;61.74;96394.78;1772414;79;21535;-66
2020/12/28 10:54:24;;;;;;;1.90;0.70;;;;;;;10.36;60.67;96394.58;1772158;80;21176;-68
2020/12/28 10:56:51;;;;;;;1.45;1.05;;;;;;;10.36;60.60;96391.17;1772466;80;21157;-63
2020/12/28 10:59:19;;;;;;;0.60;0.50;;;;;;;10.34;60.13;96386.19;1772190;80;21152;-64
2020/12/28 11:01:47;;;;;;;2.22;0.98;;;;;;;10.34;60.18;96386.19;1772486;80;21235;-66
2020/12/28 11:04:15;;;;;;;2.05;1.20;;;;;;;10.31;59.65;96381.33;1772389;80;21172;-65
2020/12/28 11:06:44;;;;;;;0.90;0.80;;;;;;;10.33;59.47;96376.78;1772329;80;21156;-65
2020/12/28 11:09:12;;;;;;;1.27;1.00;;;;;;;10.33;59.73;96374.19;1772331;80;21218;-65
2020/12/28 11:11:41;;;;;;;1.50;0.80;;;;;;;10.30;60.02;96385.42;1772092;80;21171;-65
2020/12/28 11:14:08;;;;;;;4.20;1.07;;;;;;;10.29;60.25;96383.80;1772311;80;21148;-65
2020/12/28 11:16:36;;;;;;;4.12;1.82;;;;;;;10.22;59.97;96384.20;1772217;80;21553;-65
2020/12/28 11:19:04;;;;;;;3.62;2.15;;;;;;;10.29;60.02;96387.69;1772342;80;21160;-65
2020/12/28 11:21:32;;;;;;;4.87;1.70;;;;;;;10.29;59.68;96390.28;1772511;79;21573;-66
2020/12/28 11:24:03;;;;;;;0.98;0.65;;;;;;;10.28;58.95;96394.66;1772336;79;21168;-65
2020/12/28 11:26:44;;;;;;;1.65;1.17;;;;;;;10.27;58.03;96392.27;1645217;86;21175;-70
2020/12/28 11:29:12;;;;;;;0.82;0.72;;;;;;;10.27;58.61;96392.27;1645513;86;21180;-66
2020/12/28 11:31:41;;;;;;;1.17;0.70;;;;;;;10.32;57.86;96386.84;1616134;87;21256;-65
2020/12/28 11:34:09;;;;;;;4.15;1.80;;;;;;;10.31;57.31;96387.81;1617749;88;21162;-68
2020/12/28 11:36:37;;;;;;;1.52;1.02;;;;;;;10.32;57.74;96392.03;1611057;89;21301;-65
2020/12/28 11:39:25;;;;;;;1.55;1.10;;;;;;;10.25;57.21;96371.68;1584600;89;21171;-64
2020/12/28 11:41:56;;;;;;;5.47;1.10;;;;;;;10.29;57.48;96382.02;1605546;89;21155;-65
2020/12/28 11:44:26;;;;;;;1.62;0.95;;;;;;;10.29;56.89;96399.36;1610257;88;21163;-65
2020/12/28 11:46:56;;;;;;;0.82;0.65;;;;;;;10.29;56.58;96398.88;1610103;89;21206;-65
2020/12/28 11:49:24;;;;;;;2.33;1.20;;;;;;;10.33;56.36;96401.43;1610221;89;21207;-66
2020/12/28 11:51:54;;;;;;;1.85;1.50;;;;;;;10.31;56.30;96400.01;1610317;89;21203;-66
2020/12/28 11:54:22;;;;;;;1.92;1.00;;;;;;;10.30;55.94;96386.71;1610079;88;21194;-66
2020/12/28 11:56:51;;;;;;;1.55;1.12;;;;;;;10.29;56.27;96394.98;1610307;89;21182;-66
2020/12/28 11:59:21;;;;;;;3.90;0.90;;;;;;;10.28;57.05;96390.77;1610220;88;21195;-66
2020/12/28 12:01:49;;;;;;;2.17;1.30;;;;;;;10.26;56.83;96389.35;1610036;89;21171;-66
2020/12/28 12:04:17;;;;;;;0.98;0.90;;;;;;;10.20;56.64;96386.97;1610314;89;21195;-66
2020/12/28 12:06:45;;;;;;;1.35;1.15;;;;;;;10.18;57.21;96386.36;1610352;89;21602;-66
2020/12/28 12:09:14;;;;;;;2.05;1.37;;;;;;;10.12;56.93;96388.80;1610073;89;21657;-67
2020/12/28 12:11:45;;;;;;;1.85;1.17;;;;;;;10.04;57.18;96381.13;1610067;88;21240;-66